createdAt,value
2017-07-10T00:02:08.627Z,20.87
2017-07-10T00:07:10.453Z,19.23
2017-07-10T00:12:12.165Z,21.73
2017-07-10T00:17:13.893Z,25.37
2017-07-10T00:22:15.670Z,22.90
2017-07-10T00:27:17.410Z,25.60
2017-07-10T00:32:19.154Z,23.07
2017-07-10T00:37:20.930Z,25.87
2017-07-10T00:42:22.708Z,24.43
2017-07-10T00:47:25.159Z,24.97
2017-07-10T00:52:26.903Z,27.07
2017-07-10T00:57:28.626Z,24.97
2017-07-10T01:02:31.676Z,31.67
2017-07-10T01:07:33.521Z,23.60
2017-07-10T01:12:35.284Z,22.00
2017-07-10T01:17:37.594Z,30.63
2017-07-10T01:22:40.441Z,29.20
2017-07-10T01:27:42.598Z,22.63
2017-07-10T01:32:45.143Z,27.17
2017-07-10T01:37:48.264Z,31.00
2017-07-10T01:42:50.591Z,26.37
2017-07-10T01:47:52.335Z,26.40
2017-07-10T01:52:54.679Z,25.07
2017-07-10T01:57:57.038Z,26.63
2017-07-10T02:03:00.108Z,26.40
2017-07-10T02:08:01.919Z,23.50
2017-07-10T02:13:04.439Z,30.27
2017-07-10T02:18:06.196Z,25.50
2017-07-10T02:23:07.950Z,22.63
2017-07-10T02:28:09.686Z,23.77
2017-07-10T02:33:11.722Z,23.97
2017-07-10T02:38:13.497Z,19.83
2017-07-10T02:43:15.255Z,21.23
2017-07-10T02:48:17.111Z,20.50
2017-07-10T02:53:18.865Z,19.00
2017-07-10T02:58:20.794Z,19.93
2017-07-10T03:03:22.639Z,21.37
2017-07-10T03:08:25.139Z,21.40
2017-07-10T03:13:26.970Z,20.87
2017-07-10T03:18:28.937Z,24.10
2017-07-10T03:23:30.919Z,21.13
2017-07-10T03:28:33.696Z,36.23
2017-07-10T03:33:35.436Z,18.73
2017-07-10T03:38:38.558Z,25.60
2017-07-10T03:43:42.087Z,20.13
2017-07-10T03:48:43.910Z,22.47
2017-07-10T03:53:45.904Z,19.00
2017-07-10T03:58:48.396Z,20.73
2017-07-10T04:03:50.120Z,28.47
2017-07-10T04:08:51.919Z,18.33
2017-07-10T04:13:53.748Z,18.13
2017-07-10T04:18:56.664Z,18.93
2017-07-10T04:23:58.674Z,18.00
2017-07-10T04:29:00.427Z,20.90
2017-07-10T04:34:02.207Z,19.17
2017-07-10T04:39:04.696Z,19.13
2017-07-10T04:44:06.427Z,21.73
2017-07-10T04:49:08.186Z,19.17
2017-07-10T04:54:09.917Z,18.17
2017-07-10T04:59:11.700Z,17.63
2017-07-10T05:04:13.414Z,18.23
2017-07-10T05:09:15.197Z,21.53
2017-07-10T05:14:16.939Z,23.30
2017-07-10T05:19:18.668Z,19.70
2017-07-10T05:24:20.483Z,30.37
2017-07-10T05:29:22.205Z,25.33
2017-07-10T05:34:23.918Z,35.20
2017-07-10T05:39:25.647Z,32.30
2017-07-10T05:44:27.387Z,39.67
2017-07-10T05:49:29.607Z,42.90
2017-07-10T05:54:31.362Z,44.30
2017-07-10T05:59:33.117Z,33.10
2017-07-10T06:04:34.885Z,47.23
2017-07-10T06:09:36.666Z,48.67
2017-07-10T06:14:38.372Z,38.33
2017-07-10T06:19:40.100Z,39.77
2017-07-10T06:24:41.844Z,39.13
2017-07-10T06:29:43.597Z,43.83
2017-07-10T06:34:45.306Z,42.13
2017-07-10T06:39:47.056Z,44.57
2017-07-10T06:44:48.776Z,31.57
2017-07-10T06:49:51.313Z,32.80
2017-07-10T06:54:53.023Z,35.27
2017-07-10T06:59:54.840Z,38.37
2017-07-10T07:04:57.123Z,42.00
2017-07-10T07:09:58.855Z,44.60
2017-07-10T07:15:00.604Z,51.33
2017-07-10T07:20:02.336Z,48.67
2017-07-10T07:25:04.680Z,52.97
2017-07-10T07:30:06.411Z,55.70
2017-07-10T07:35:08.155Z,48.03
2017-07-10T07:40:09.874Z,42.97
2017-07-10T07:45:11.620Z,38.23
2017-07-10T07:50:13.363Z,43.70
2017-07-10T07:55:15.110Z,50.93
2017-07-10T08:00:16.918Z,44.17
2017-07-10T08:05:18.780Z,53.00
2017-07-10T08:10:20.543Z,57.63
2017-07-10T08:15:22.338Z,48.17
2017-07-10T08:20:24.847Z,56.93
2017-07-10T08:25:26.571Z,56.90
2017-07-10T08:30:28.287Z,58.40
2017-07-10T08:35:30.051Z,48.33
2017-07-10T08:40:31.793Z,44.53
2017-07-10T08:45:33.505Z,46.70
2017-07-10T08:50:35.984Z,46.23
2017-07-10T08:55:38.427Z,42.87
2017-07-10T09:00:40.150Z,59.03
2017-07-10T09:05:41.907Z,55.20
2017-07-10T09:10:43.628Z,37.13
2017-07-10T09:15:45.379Z,38.03
2017-07-10T09:20:47.147Z,41.80
2017-07-10T09:25:49.640Z,50.17
2017-07-10T09:30:51.381Z,37.40
2017-07-10T09:35:53.112Z,45.60
2017-07-10T09:40:54.820Z,43.20
2017-07-10T09:45:56.545Z,41.50
2017-07-10T09:50:58.268Z,35.37
2017-07-10T09:55:59.995Z,35.70
2017-07-10T10:01:01.767Z,44.47
2017-07-10T10:06:03.573Z,31.70
2017-07-10T10:11:05.642Z,26.43
2017-07-10T10:16:07.370Z,26.27
2017-07-10T10:21:09.091Z,23.30
2017-07-10T10:26:11.551Z,26.07
2017-07-10T10:31:14.013Z,23.67
2017-07-10T10:36:15.746Z,21.47
2017-07-10T10:41:17.471Z,27.83
2017-07-10T10:46:19.232Z,23.87
2017-07-10T10:51:21.004Z,16.13
2017-07-10T10:56:22.758Z,18.53
2017-07-10T11:01:24.477Z,14.77
2017-07-10T11:06:26.210Z,17.10
2017-07-10T11:11:27.941Z,20.47
2017-07-10T11:16:29.760Z,14.70
2017-07-10T11:21:31.475Z,12.37
2017-07-10T11:26:33.228Z,18.07
2017-07-10T11:31:34.972Z,18.00
2017-07-10T11:36:36.683Z,19.50
2017-07-10T11:41:38.415Z,17.50
2017-07-10T11:46:40.209Z,26.60
2017-07-10T11:51:41.961Z,22.00
2017-07-10T11:56:43.748Z,21.00
2017-07-10T12:01:45.534Z,21.10
2017-07-10T12:06:47.316Z,29.43
2017-07-10T12:11:49.835Z,25.23
2017-07-10T12:16:52.345Z,32.07
2017-07-10T12:21:54.116Z,30.03
2017-07-10T12:26:55.887Z,28.63
2017-07-10T12:31:57.612Z,32.80
2017-07-10T12:36:59.382Z,28.37
2017-07-10T12:42:01.107Z,28.07
2017-07-10T12:47:02.897Z,27.10
2017-07-10T12:52:04.671Z,27.30
2017-07-10T12:57:06.432Z,43.70
2017-07-10T13:02:08.189Z,44.63
2017-07-10T13:07:09.923Z,40.77
2017-07-10T13:12:11.651Z,39.67
2017-07-10T13:17:13.375Z,45.37
2017-07-10T13:22:15.114Z,46.83
2017-07-10T13:27:16.854Z,44.53
2017-07-10T13:32:18.604Z,42.53
2017-07-10T13:37:20.420Z,46.77
2017-07-10T13:42:22.191Z,42.40
2017-07-10T13:47:24.453Z,45.30
2017-07-10T13:52:26.354Z,40.80
2017-07-10T13:57:29.120Z,42.87
2017-07-10T14:02:31.059Z,43.43
2017-07-10T14:07:34.776Z,46.20
2017-07-10T14:12:36.727Z,45.60
2017-07-10T14:17:38.476Z,50.27
2017-07-10T14:22:40.230Z,48.57
2017-07-10T14:27:42.208Z,44.57
2017-07-10T14:32:44.070Z,42.97
2017-07-10T14:37:46.569Z,47.80
2017-07-10T14:42:48.365Z,46.03
2017-07-10T14:47:50.943Z,50.37
2017-07-10T14:52:52.725Z,46.57
2017-07-10T14:57:56.642Z,45.60
2017-07-10T15:02:58.527Z,46.93
2017-07-10T15:08:01.256Z,42.17
2017-07-10T15:13:03.219Z,39.10
2017-07-10T15:18:05.005Z,43.33
2017-07-10T15:23:07.445Z,33.10
2017-07-10T15:28:09.310Z,38.03
2017-07-10T15:33:11.098Z,35.83
2017-07-10T15:38:12.863Z,34.80
2017-07-10T15:43:15.764Z,32.53
2017-07-10T15:48:17.535Z,34.60
2017-07-10T15:53:19.299Z,34.40
2017-07-10T15:58:21.137Z,34.00
2017-07-10T16:03:23.108Z,33.97
2017-07-10T16:08:24.907Z,37.93
2017-07-10T16:13:27.021Z,34.40
2017-07-10T16:18:29.633Z,34.47
2017-07-10T16:23:31.391Z,32.83
2017-07-10T16:28:33.505Z,40.47
2017-07-10T16:33:36.161Z,32.93
2017-07-10T16:38:38.057Z,32.53
2017-07-10T16:43:39.880Z,39.13
2017-07-10T16:48:42.476Z,37.90
2017-07-10T16:53:44.537Z,33.50
2017-07-10T16:58:46.917Z,34.73
2017-07-10T17:03:48.675Z,43.03
2017-07-10T17:08:50.519Z,32.80
2017-07-10T17:13:52.324Z,36.37
2017-07-10T17:18:54.094Z,35.97
2017-07-10T17:23:55.913Z,32.57
2017-07-10T17:28:57.812Z,35.43
2017-07-10T17:34:00.090Z,31.67
2017-07-10T17:39:02.024Z,31.07
2017-07-10T17:44:03.948Z,33.47
2017-07-10T17:49:05.736Z,34.80
2017-07-10T17:54:08.064Z,32.40
2017-07-10T17:59:10.116Z,34.90
2017-07-10T18:04:12.722Z,33.53
2017-07-10T18:09:14.733Z,31.30
2017-07-10T18:14:16.621Z,32.93
2017-07-10T18:19:18.579Z,32.30
2017-07-10T18:24:21.768Z,30.07
2017-07-10T18:29:23.552Z,30.50
2017-07-10T18:34:26.152Z,30.83
2017-07-10T18:39:28.553Z,26.90
2017-07-10T18:44:31.154Z,26.60
2017-07-10T18:49:33.317Z,24.87
2017-07-10T18:54:37.048Z,23.93
2017-07-10T18:59:39.515Z,22.83
2017-07-10T19:04:41.699Z,24.70
2017-07-10T19:09:43.916Z,23.90
2017-07-10T19:14:45.982Z,22.90
2017-07-10T19:19:48.249Z,23.37
2017-07-10T19:24:51.476Z,27.00
2017-07-10T19:29:53.640Z,24.17
2017-07-10T19:34:55.379Z,25.53
2017-07-10T19:39:57.528Z,31.80
2017-07-10T19:44:59.302Z,26.23
2017-07-10T19:50:01.193Z,39.60
2017-07-10T19:55:03.966Z,31.70
2017-07-10T20:00:05.802Z,23.80
2017-07-10T20:05:07.727Z,27.03
2017-07-10T20:10:09.557Z,26.17
2017-07-10T20:15:11.373Z,34.23
2017-07-10T20:20:13.177Z,27.73
2017-07-10T20:25:15.232Z,42.93
2017-07-10T20:30:17.206Z,38.93
2017-07-10T20:35:19.304Z,37.00
2017-07-10T20:40:22.150Z,38.20
2017-07-10T20:45:25.405Z,35.87
2017-07-10T20:50:27.592Z,40.37
2017-07-10T20:55:29.662Z,37.70
2017-07-10T21:00:31.811Z,40.60
2017-07-10T21:05:33.627Z,45.33
2017-07-10T21:10:35.406Z,43.63
2017-07-10T21:15:37.255Z,43.23
2017-07-10T21:20:39.119Z,43.80
2017-07-10T21:25:40.972Z,49.50
2017-07-10T21:30:42.719Z,48.37
2017-07-10T21:35:44.823Z,45.00
2017-07-10T21:40:47.364Z,58.40
2017-07-10T21:45:49.150Z,54.03
2017-07-10T21:50:54.362Z,56.40
2017-07-10T21:55:56.686Z,58.10
2017-07-10T22:00:58.829Z,64.87
2017-07-10T22:06:00.623Z,59.47
2017-07-10T22:11:02.384Z,61.33
2017-07-10T22:16:04.118Z,47.93
2017-07-10T22:21:05.883Z,54.57
2017-07-10T22:26:08.063Z,58.73
2017-07-10T22:31:10.269Z,55.17
2017-07-10T22:36:12.422Z,58.13
2017-07-10T22:41:14.215Z,42.07
2017-07-10T22:46:16.258Z,44.23
2017-07-10T22:51:18.808Z,61.90
2017-07-10T22:56:20.597Z,59.27
2017-07-10T23:01:22.460Z,65.17
2017-07-10T23:06:24.179Z,44.33
2017-07-10T23:11:26.213Z,57.97
2017-07-10T23:16:28.723Z,65.03
2017-07-10T23:21:30.475Z,46.10
2017-07-10T23:26:32.248Z,55.13
2017-07-10T23:31:34.308Z,60.83
2017-07-10T23:36:36.999Z,51.43
2017-07-10T23:41:38.770Z,72.23
2017-07-10T23:46:40.669Z,87.10
2017-07-10T23:51:43.330Z,76.57
2017-07-10T23:56:45.192Z,72.60
